sensor_id;sensor_type;location;lat;lon;timestamp;temperature;humidity
21801;DHT22;11062;51.164;16.924;2023-03-01T00:04:31;19.60;30.70
21801;DHT22;11062;51.164;16.924;2023-03-01T00:14:16;19.60;30.60
21801;DHT22;11062;51.164;16.924;2023-03-01T00:16:43;19.60;34.30
21801;DHT22;11062;51.164;16.924;2023-03-01T00:19:15;19.60;30.40
21801;DHT22;11062;51.164;16.924;2023-03-01T00:21:42;19.60;30.80
21801;DHT22;11062;51.164;16.924;2023-03-01T00:31:28;19.50;30.70
21801;DHT22;11062;51.164;16.924;2023-03-01T00:34:04;19.40;30.60
21801;DHT22;11062;51.164;16.924;2023-03-01T00:36:33;19.40;30.40
21801;DHT22;11062;51.164;16.924;2023-03-01T00:43:53;19.40;29.90
21801;DHT22;11062;51.164;16.924;2023-03-01T00:46:21;19.30;29.90
21801;DHT22;11062;51.164;16.924;2023-03-01T00:56:12;18.60;30.90
21801;DHT22;11062;51.164;16.924;2023-03-01T01:01:19;19.30;30.60
21801;DHT22;11062;51.164;16.924;2023-03-01T01:03:51;19.30;30.60
21801;DHT22;11062;51.164;16.924;2023-03-01T01:06:21;19.40;33.80
21801;DHT22;11062;51.164;16.924;2023-03-01T01:08:47;19.20;33.90
21801;DHT22;11062;51.164;16.924;2023-03-01T01:11:14;19.50;30.00
21801;DHT22;11062;51.164;16.924;2023-03-01T01:21:05;19.30;30.40
21801;DHT22;11062;51.164;16.924;2023-03-01T01:38:07;19.10;32.00
21801;DHT22;11062;51.164;16.924;2023-03-01T01:42:59;19.20;33.60
21801;DHT22;11062;51.164;16.924;2023-03-01T01:45:32;19.70;33.40
21801;DHT22;11062;51.164;16.924;2023-03-01T01:48:04;19.00;30.30
21801;DHT22;11062;51.164;16.924;2023-03-01T01:50:33;19.00;29.90
21801;DHT22;11062;51.164;16.924;2023-03-01T01:53:09;19.10;30.00
21801;DHT22;11062;51.164;16.924;2023-03-01T01:55:37;19.00;31.60
21801;DHT22;11062;51.164;16.924;2023-03-01T01:58:07;19.00;30.10
21801;DHT22;11062;51.164;16.924;2023-03-01T02:03:04;19.00;29.80
21801;DHT22;11062;51.164;16.924;2023-03-01T02:08:18;18.90;30.10
21801;DHT22;11062;51.164;16.924;2023-03-01T02:10:45;18.90;30.10
21801;DHT22;11062;51.164;16.924;2023-03-01T02:13:12;18.90;30.00
21801;DHT22;11062;51.164;16.924;2023-03-01T02:15:40;18.90;29.80
21801;DHT22;11062;51.164;16.924;2023-03-01T02:18:07;18.90;29.90
21801;DHT22;11062;51.164;16.924;2023-03-01T02:20:40;18.80;29.90
21801;DHT22;11062;51.164;16.924;2023-03-01T02:23:11;18.90;30.00
21801;DHT22;11062;51.164;16.924;2023-03-01T02:28:40;18.80;33.40
21801;DHT22;11062;51.164;16.924;2023-03-01T02:31:08;18.80;30.30
21801;DHT22;11062;51.164;16.924;2023-03-01T02:33:53;18.80;30.40
21801;DHT22;11062;51.164;16.924;2023-03-01T02:36:26;18.80;30.40
21801;DHT22;11062;51.164;16.924;2023-03-01T02:38:58;18.80;33.40
21801;DHT22;11062;51.164;16.924;2023-03-01T02:41:26;18.90;30.00
21801;DHT22;11062;51.164;16.924;2023-03-01T02:46:23;18.80;29.60
21801;DHT22;11062;51.164;16.924;2023-03-01T02:48:57;18.80;29.40
21801;DHT22;11062;51.164;16.924;2023-03-01T02:51:43;18.70;30.00
21801;DHT22;11062;51.164;16.924;2023-03-01T02:59:21;18.70;29.90
21801;DHT22;11062;51.164;16.924;2023-03-01T03:01:47;18.80;31.30
21801;DHT22;11062;51.164;16.924;2023-03-01T03:04:16;18.80;30.20
21801;DHT22;11062;51.164;16.924;2023-03-01T03:06:47;18.40;33.10
21801;DHT22;11062;51.164;16.924;2023-03-01T03:09:14;18.80;30.00
21801;DHT22;11062;51.164;16.924;2023-03-01T03:11:41;18.60;29.90
21801;DHT22;11062;51.164;16.924;2023-03-01T03:14:09;18.50;30.20
21801;DHT22;11062;51.164;16.924;2023-03-01T03:16:46;18.60;30.00
21801;DHT22;11062;51.164;16.924;2023-03-01T03:19:12;18.50;33.30
21801;DHT22;11062;51.164;16.924;2023-03-01T03:21:38;18.50;30.20
21801;DHT22;11062;51.164;16.924;2023-03-01T03:24:04;18.40;31.20
21801;DHT22;11062;51.164;16.924;2023-03-01T03:28:57;18.50;29.80
21801;DHT22;11062;51.164;16.924;2023-03-01T03:33:49;18.40;30.10
21801;DHT22;11062;51.164;16.924;2023-03-01T03:36:23;18.00;30.60
21801;DHT22;11062;51.164;16.924;2023-03-01T03:38:49;18.40;29.70
21801;DHT22;11062;51.164;16.924;2023-03-01T03:41:16;18.40;29.70
21801;DHT22;11062;51.164;16.924;2023-03-01T03:43:42;18.50;30.40
21801;DHT22;11062;51.164;16.924;2023-03-01T03:46:10;18.30;30.70
21801;DHT22;11062;51.164;16.924;2023-03-01T03:48:39;18.40;30.00
21801;DHT22;11062;51.164;16.924;2023-03-01T03:51:05;17.40;29.70
21801;DHT22;11062;51.164;16.924;2023-03-01T03:53:32;18.30;29.90
21801;DHT22;11062;51.164;16.924;2023-03-01T03:58:25;17.00;29.70
21801;DHT22;11062;51.164;16.924;2023-03-01T04:00:55;18.30;29.90
21801;DHT22;11062;51.164;16.924;2023-03-01T04:03:22;18.30;32.80
21801;DHT22;11062;51.164;16.924;2023-03-01T04:05:51;18.40;30.90
21801;DHT22;11062;51.164;16.924;2023-03-01T04:08:21;18.30;29.90
21801;DHT22;11062;51.164;16.924;2023-03-01T04:10:50;18.20;30.70
21801;DHT22;11062;51.164;16.924;2023-03-01T04:13:20;18.20;29.70
21801;DHT22;11062;51.164;16.924;2023-03-01T04:15:49;18.10;32.30
21801;DHT22;11062;51.164;16.924;2023-03-01T04:18:17;18.20;31.80
21801;DHT22;11062;51.164;16.924;2023-03-01T04:23:15;18.20;30.70
21801;DHT22;11062;51.164;16.924;2023-03-01T04:25:50;18.00;29.50
21801;DHT22;11062;51.164;16.924;2023-03-01T04:28:26;18.20;31.10
21801;DHT22;11062;51.164;16.924;2023-03-01T04:30:57;18.10;29.80
21801;DHT22;11062;51.164;16.924;2023-03-01T04:33:23;18.20;29.60
21801;DHT22;11062;51.164;16.924;2023-03-01T04:35:49;18.20;30.00
21801;DHT22;11062;51.164;16.924;2023-03-01T04:38:17;18.20;30.00
21801;DHT22;11062;51.164;16.924;2023-03-01T04:40:43;18.20;30.10
21801;DHT22;11062;51.164;16.924;2023-03-01T04:43:10;18.10;30.30
21801;DHT22;11062;51.164;16.924;2023-03-01T04:45:36;18.20;30.60
21801;DHT22;11062;51.164;16.924;2023-03-01T04:48:03;18.20;31.70
21801;DHT22;11062;51.164;16.924;2023-03-01T04:50:29;18.10;31.40
21801;DHT22;11062;51.164;16.924;2023-03-01T04:52:55;18.10;30.20
21801;DHT22;11062;51.164;16.924;2023-03-01T04:55:27;18.00;30.00
21801;DHT22;11062;51.164;16.924;2023-03-01T04:57:54;18.10;30.70
21801;DHT22;11062;51.164;16.924;2023-03-01T05:00:20;18.00;30.50
21801;DHT22;11062;51.164;16.924;2023-03-01T05:05:29;18.00;30.60
21801;DHT22;11062;51.164;16.924;2023-03-01T05:07:57;17.90;30.00
21801;DHT22;11062;51.164;16.924;2023-03-01T05:10:24;18.00;30.60
21801;DHT22;11062;51.164;16.924;2023-03-01T05:12:51;18.10;30.40
21801;DHT22;11062;51.164;16.924;2023-03-01T05:15:18;18.00;30.20
21801;DHT22;11062;51.164;16.924;2023-03-01T05:17:44;18.00;30.30
21801;DHT22;11062;51.164;16.924;2023-03-01T05:20:10;17.90;30.70
21801;DHT22;11062;51.164;16.924;2023-03-01T05:22:37;18.00;30.40
21801;DHT22;11062;51.164;16.924;2023-03-01T05:25:03;18.00;30.40
21801;DHT22;11062;51.164;16.924;2023-03-01T05:27:29;18.00;30.70
21801;DHT22;11062;51.164;16.924;2023-03-01T05:29:56;18.00;30.60
21801;DHT22;11062;51.164;16.924;2023-03-01T05:32:22;18.00;30.30
21801;DHT22;11062;51.164;16.924;2023-03-01T05:34:48;17.90;30.30
21801;DHT22;11062;51.164;16.924;2023-03-01T05:37:14;17.90;29.90
21801;DHT22;11062;51.164;16.924;2023-03-01T05:39:39;17.90;30.00
21801;DHT22;11062;51.164;16.924;2023-03-01T05:42:10;17.90;30.00
21801;DHT22;11062;51.164;16.924;2023-03-01T05:44:37;18.00;30.30
21801;DHT22;11062;51.164;16.924;2023-03-01T05:47:02;17.90;30.30
21801;DHT22;11062;51.164;16.924;2023-03-01T05:49:28;18.00;30.20
21801;DHT22;11062;51.164;16.924;2023-03-01T05:51:55;18.00;30.00
21801;DHT22;11062;51.164;16.924;2023-03-01T05:54:22;18.00;30.00
21801;DHT22;11062;51.164;16.924;2023-03-01T05:56:47;18.00;30.40
21801;DHT22;11062;51.164;16.924;2023-03-01T05:59:14;18.00;30.30
21801;DHT22;11062;51.164;16.924;2023-03-01T06:01:41;18.00;30.40
21801;DHT22;11062;51.164;16.924;2023-03-01T06:04:07;18.00;30.60
21801;DHT22;11062;51.164;16.924;2023-03-01T06:06:34;18.00;30.60
21801;DHT22;11062;51.164;16.924;2023-03-01T06:09:03;18.10;30.00
21801;DHT22;11062;51.164;16.924;2023-03-01T06:11:29;18.10;30.50
21801;DHT22;11062;51.164;16.924;2023-03-01T06:13:55;18.10;30.20
21801;DHT22;11062;51.164;16.924;2023-03-01T06:16:21;18.20;30.60
21801;DHT22;11062;51.164;16.924;2023-03-01T06:18:47;18.20;30.40
21801;DHT22;11062;51.164;16.924;2023-03-01T06:21:12;18.20;30.60
21801;DHT22;11062;51.164;16.924;2023-03-01T06:23:39;18.20;30.90
21801;DHT22;11062;51.164;16.924;2023-03-01T06:26:08;18.30;30.90
21801;DHT22;11062;51.164;16.924;2023-03-01T06:28:35;18.30;31.10
21801;DHT22;11062;51.164;16.924;2023-03-01T06:31:01;18.40;31.20
21801;DHT22;11062;51.164;16.924;2023-03-01T06:33:27;18.40;31.20
21801;DHT22;11062;51.164;16.924;2023-03-01T06:35:56;18.50;31.60
21801;DHT22;11062;51.164;16.924;2023-03-01T06:38:23;18.60;31.80
21801;DHT22;11062;51.164;16.924;2023-03-01T06:40:54;18.60;31.70
21801;DHT22;11062;51.164;16.924;2023-03-01T06:43:21;18.70;32.00
21801;DHT22;11062;51.164;16.924;2023-03-01T06:45:46;18.80;32.10
21801;DHT22;11062;51.164;16.924;2023-03-01T06:48:12;18.80;32.50
21801;DHT22;11062;51.164;16.924;2023-03-01T06:50:38;18.90;32.90
21801;DHT22;11062;51.164;16.924;2023-03-01T06:53:04;18.90;33.10
21801;DHT22;11062;51.164;16.924;2023-03-01T06:55:30;19.00;33.40
21801;DHT22;11062;51.164;16.924;2023-03-01T06:57:57;19.10;33.60
21801;DHT22;11062;51.164;16.924;2023-03-01T07:00:24;19.20;33.40
21801;DHT22;11062;51.164;16.924;2023-03-01T07:02:51;19.20;33.20
21801;DHT22;11062;51.164;16.924;2023-03-01T07:05:17;19.40;33.20
21801;DHT22;11062;51.164;16.924;2023-03-01T07:07:43;18.90;33.00
21801;DHT22;11062;51.164;16.924;2023-03-01T07:10:09;19.60;33.30
21801;DHT22;11062;51.164;16.924;2023-03-01T07:12:35;19.70;33.40
21801;DHT22;11062;51.164;16.924;2023-03-01T07:15:01;19.80;33.70
21801;DHT22;11062;51.164;16.924;2023-03-01T07:17:27;19.90;33.70
21801;DHT22;11062;51.164;16.924;2023-03-01T07:19:53;20.00;33.70
21801;DHT22;11062;51.164;16.924;2023-03-01T07:22:18;20.10;33.60
21801;DHT22;11062;51.164;16.924;2023-03-01T07:24:44;22.70;35.00
21801;DHT22;11062;51.164;16.924;2023-03-01T07:27:10;20.30;33.70
21801;DHT22;11062;51.164;16.924;2023-03-01T07:29:36;20.40;33.60
21801;DHT22;11062;51.164;16.924;2023-03-01T07:32:03;20.50;33.60
21801;DHT22;11062;51.164;16.924;2023-03-01T07:34:29;20.60;33.50
21801;DHT22;11062;51.164;16.924;2023-03-01T07:36:55;20.50;33.90
21801;DHT22;11062;51.164;16.924;2023-03-01T07:39:21;20.50;33.70
21801;DHT22;11062;51.164;16.924;2023-03-01T07:41:49;20.50;33.80
21801;DHT22;11062;51.164;16.924;2023-03-01T07:44:15;20.10;34.00
21801;DHT22;11062;51.164;16.924;2023-03-01T07:47:08;20.30;34.60
21801;DHT22;11062;51.164;16.924;2023-03-01T07:49:34;20.60;34.30
21801;DHT22;11062;51.164;16.924;2023-03-01T07:52:00;20.70;34.30
21801;DHT22;11062;51.164;16.924;2023-03-01T07:54:26;21.00;34.20
21801;DHT22;11062;51.164;16.924;2023-03-01T07:56:52;21.10;33.90
21801;DHT22;11062;51.164;16.924;2023-03-01T07:59:20;21.30;33.90
21801;DHT22;11062;51.164;16.924;2023-03-01T08:01:45;21.50;33.80
21801;DHT22;11062;51.164;16.924;2023-03-01T08:04:12;21.60;33.30
21801;DHT22;11062;51.164;16.924;2023-03-01T08:06:38;21.80;33.20
21801;DHT22;11062;51.164;16.924;2023-03-01T08:09:04;21.90;32.60
21801;DHT22;11062;51.164;16.924;2023-03-01T08:11:30;22.00;32.30
21801;DHT22;11062;51.164;16.924;2023-03-01T08:13:56;22.10;32.20
21801;DHT22;11062;51.164;16.924;2023-03-01T08:16:23;22.20;32.30
21801;DHT22;11062;51.164;16.924;2023-03-01T08:18:49;22.30;31.70
21801;DHT22;11062;51.164;16.924;2023-03-01T08:21:16;22.20;32.00
21801;DHT22;11062;51.164;16.924;2023-03-01T08:23:43;22.40;32.20
21801;DHT22;11062;51.164;16.924;2023-03-01T08:26:13;22.50;31.50
21801;DHT22;11062;51.164;16.924;2023-03-01T08:28:40;22.60;31.40
21801;DHT22;11062;51.164;16.924;2023-03-01T08:33:46;22.90;31.40
21801;DHT22;11062;51.164;16.924;2023-03-01T08:36:17;23.00;31.30
21801;DHT22;11062;51.164;16.924;2023-03-01T08:38:43;23.00;30.80
21801;DHT22;11062;51.164;16.924;2023-03-01T08:41:09;23.10;31.40
21801;DHT22;11062;51.164;16.924;2023-03-01T08:43:35;23.20;31.80
21801;DHT22;11062;51.164;16.924;2023-03-01T08:46:01;23.20;31.40
21801;DHT22;11062;51.164;16.924;2023-03-01T08:48:28;23.20;31.40
21801;DHT22;11062;51.164;16.924;2023-03-01T08:50:54;23.20;31.80
21801;DHT22;11062;51.164;16.924;2023-03-01T08:53:20;23.30;31.50
21801;DHT22;11062;51.164;16.924;2023-03-01T08:55:45;23.30;31.20
21801;DHT22;11062;51.164;16.924;2023-03-01T08:58:11;23.30;31.60
21801;DHT22;11062;51.164;16.924;2023-03-01T09:00:37;22.20;30.60
21801;DHT22;11062;51.164;16.924;2023-03-01T09:03:04;23.40;30.60
21801;DHT22;11062;51.164;16.924;2023-03-01T09:05:33;23.50;30.60
21801;DHT22;11062;51.164;16.924;2023-03-01T09:07:59;23.60;31.10
21801;DHT22;11062;51.164;16.924;2023-03-01T09:10:25;23.60;31.00
21801;DHT22;11062;51.164;16.924;2023-03-01T09:12:51;23.70;30.60
21801;DHT22;11062;51.164;16.924;2023-03-01T09:15:17;23.60;31.70
21801;DHT22;11062;51.164;16.924;2023-03-01T09:17:43;23.60;30.30
21801;DHT22;11062;51.164;16.924;2023-03-01T09:20:09;23.70;30.00
21801;DHT22;11062;51.164;16.924;2023-03-01T09:22:35;23.80;30.00
21801;DHT22;11062;51.164;16.924;2023-03-01T09:25:01;23.90;29.90
21801;DHT22;11062;51.164;16.924;2023-03-01T09:27:27;23.90;29.70
21801;DHT22;11062;51.164;16.924;2023-03-01T09:29:53;24.00;29.10
21801;DHT22;11062;51.164;16.924;2023-03-01T09:32:21;24.10;29.10
21801;DHT22;11062;51.164;16.924;2023-03-01T09:34:47;24.10;29.30
21801;DHT22;11062;51.164;16.924;2023-03-01T09:37:42;24.10;29.40
21801;DHT22;11062;51.164;16.924;2023-03-01T09:40:21;24.20;29.20
21801;DHT22;11062;51.164;16.924;2023-03-01T09:43:07;24.40;29.20
21801;DHT22;11062;51.164;16.924;2023-03-01T09:45:41;24.50;28.70
21801;DHT22;11062;51.164;16.924;2023-03-01T09:48:15;24.80;29.00
21801;DHT22;11062;51.164;16.924;2023-03-01T09:50:43;24.90;28.20
21801;DHT22;11062;51.164;16.924;2023-03-01T09:53:17;25.20;28.40
21801;DHT22;11062;51.164;16.924;2023-03-01T09:56:26;25.60;27.70
21801;DHT22;11062;51.164;16.924;2023-03-01T10:01:40;26.30;27.50
21801;DHT22;11062;51.164;16.924;2023-03-01T10:09:41;27.10;27.20
21801;DHT22;11062;51.164;16.924;2023-03-01T10:12:23;27.20;26.80
21801;DHT22;11062;51.164;16.924;2023-03-01T10:14:56;27.10;26.60
21801;DHT22;11062;51.164;16.924;2023-03-01T10:17:49;27.10;26.90
21801;DHT22;11062;51.164;16.924;2023-03-01T10:20:41;27.00;26.60
21801;DHT22;11062;51.164;16.924;2023-03-01T10:23:09;26.90;27.10
21801;DHT22;11062;51.164;16.924;2023-03-01T10:28:17;26.90;26.40
21801;DHT22;11062;51.164;16.924;2023-03-01T10:30:43;26.90;26.40
21801;DHT22;11062;51.164;16.924;2023-03-01T10:33:32;26.80;26.90
21801;DHT22;11062;51.164;16.924;2023-03-01T10:35:59;27.00;26.60
21801;DHT22;11062;51.164;16.924;2023-03-01T10:38:25;27.00;27.00
21801;DHT22;11062;51.164;16.924;2023-03-01T10:43:28;27.30;26.40
21801;DHT22;11062;51.164;16.924;2023-03-01T10:45:55;27.30;25.60
21801;DHT22;11062;51.164;16.924;2023-03-01T10:48:23;27.30;25.80
21801;DHT22;11062;51.164;16.924;2023-03-01T10:53:36;27.50;25.90
21801;DHT22;11062;51.164;16.924;2023-03-01T10:56:11;27.60;26.10
21801;DHT22;11062;51.164;16.924;2023-03-01T10:59:00;27.40;25.60
21801;DHT22;11062;51.164;16.924;2023-03-01T11:01:29;27.60;25.60
21801;DHT22;11062;51.164;16.924;2023-03-01T11:06:34;27.90;26.20
21801;DHT22;11062;51.164;16.924;2023-03-01T11:09:21;28.00;26.60
21801;DHT22;11062;51.164;16.924;2023-03-01T11:11:53;28.30;26.10
21801;DHT22;11062;51.164;16.924;2023-03-01T11:14:28;28.50;25.90
21801;DHT22;11062;51.164;16.924;2023-03-01T11:17:12;28.60;25.50
21801;DHT22;11062;51.164;16.924;2023-03-01T11:19:40;28.60;25.10
21801;DHT22;11062;51.164;16.924;2023-03-01T11:22:33;28.70;25.50
21801;DHT22;11062;51.164;16.924;2023-03-01T11:25:00;29.10;25.30
21801;DHT22;11062;51.164;16.924;2023-03-01T11:27:39;29.30;24.60
21801;DHT22;11062;51.164;16.924;2023-03-01T11:30:18;29.70;24.60
21801;DHT22;11062;51.164;16.924;2023-03-01T11:32:55;30.10;23.70
21801;DHT22;11062;51.164;16.924;2023-03-01T11:35:25;30.20;24.20
21801;DHT22;11062;51.164;16.924;2023-03-01T11:40:54;30.50;23.90
21801;DHT22;11062;51.164;16.924;2023-03-01T11:43:39;30.80;24.30
21801;DHT22;11062;51.164;16.924;2023-03-01T11:51:56;31.80;23.50
21801;DHT22;11062;51.164;16.924;2023-03-01T11:57:14;32.30;22.90
21801;DHT22;11062;51.164;16.924;2023-03-01T11:59:51;32.70;23.30
21801;DHT22;11062;51.164;16.924;2023-03-01T12:02:32;32.90;22.90
21801;DHT22;11062;51.164;16.924;2023-03-01T12:08:08;33.30;22.60
21801;DHT22;11062;51.164;16.924;2023-03-01T12:14:13;33.60;22.20
21801;DHT22;11062;51.164;16.924;2023-03-01T12:30:55;35.00;21.40
21801;DHT22;11062;51.164;16.924;2023-03-01T12:33:41;35.10;21.50
21801;DHT22;11062;51.164;16.924;2023-03-01T12:36:49;35.30;20.90
21801;DHT22;11062;51.164;16.924;2023-03-01T12:42:15;35.40;20.80
21801;DHT22;11062;51.164;16.924;2023-03-01T12:52:46;35.30;21.30
21801;DHT22;11062;51.164;16.924;2023-03-01T12:55:41;35.20;20.60
21801;DHT22;11062;51.164;16.924;2023-03-01T12:58:28;35.40;19.40
21801;DHT22;11062;51.164;16.924;2023-03-01T13:01:08;35.30;20.00
21801;DHT22;11062;51.164;16.924;2023-03-01T13:07:04;35.70;20.50
21801;DHT22;11062;51.164;16.924;2023-03-01T13:12:01;36.00;20.90
21801;DHT22;11062;51.164;16.924;2023-03-01T13:16:58;36.30;20.20
21801;DHT22;11062;51.164;16.924;2023-03-01T13:19:26;36.30;20.30
21801;DHT22;11062;51.164;16.924;2023-03-01T13:21:54;36.20;20.10
21801;DHT22;11062;51.164;16.924;2023-03-01T13:24:39;36.20;20.40
21801;DHT22;11062;51.164;16.924;2023-03-01T13:27:20;36.30;20.40
21801;DHT22;11062;51.164;16.924;2023-03-01T13:29:56;36.20;20.40
21801;DHT22;11062;51.164;16.924;2023-03-01T13:35:41;36.40;20.40
21801;DHT22;11062;51.164;16.924;2023-03-01T13:37:44;36.40;20.30
21801;DHT22;11062;51.164;16.924;2023-03-01T13:42:47;36.40;20.70
21801;DHT22;11062;51.164;16.924;2023-03-01T13:48:03;36.20;20.10
21801;DHT22;11062;51.164;16.924;2023-03-01T13:50:50;35.80;20.40
21801;DHT22;11062;51.164;16.924;2023-03-01T13:53:23;35.50;19.80
21801;DHT22;11062;51.164;16.924;2023-03-01T13:55:58;35.80;19.60
21801;DHT22;11062;51.164;16.924;2023-03-01T13:58:30;35.80;19.80
21801;DHT22;11062;51.164;16.924;2023-03-01T14:01:06;35.80;19.20
21801;DHT22;11062;51.164;16.924;2023-03-01T14:03:33;35.70;19.70
21801;DHT22;11062;51.164;16.924;2023-03-01T14:08:36;35.70;19.80
21801;DHT22;11062;51.164;16.924;2023-03-01T14:19:27;36.00;20.20
21801;DHT22;11062;51.164;16.924;2023-03-01T14:24:50;36.00;20.30
21801;DHT22;11062;51.164;16.924;2023-03-01T14:27:17;36.10;20.50
21801;DHT22;11062;51.164;16.924;2023-03-01T14:29:54;36.10;20.00
21801;DHT22;11062;51.164;16.924;2023-03-01T14:32:23;36.00;20.20
21801;DHT22;11062;51.164;16.924;2023-03-01T14:34:51;36.00;20.40
21801;DHT22;11062;51.164;16.924;2023-03-01T14:37:21;36.00;20.40
21801;DHT22;11062;51.164;16.924;2023-03-01T14:39:48;35.90;20.20
21801;DHT22;11062;51.164;16.924;2023-03-01T14:42:15;35.90;20.40
21801;DHT22;11062;51.164;16.924;2023-03-01T14:44:47;35.80;20.50
21801;DHT22;11062;51.164;16.924;2023-03-01T14:47:19;35.90;20.50
21801;DHT22;11062;51.164;16.924;2023-03-01T14:49:54;35.90;20.40
21801;DHT22;11062;51.164;16.924;2023-03-01T14:52:25;35.90;20.30
21801;DHT22;11062;51.164;16.924;2023-03-01T14:54:54;35.80;20.30
21801;DHT22;11062;51.164;16.924;2023-03-01T14:57:25;35.80;20.60
21801;DHT22;11062;51.164;16.924;2023-03-01T14:59:57;35.70;20.80
21801;DHT22;11062;51.164;16.924;2023-03-01T15:02:26;35.50;20.70
21801;DHT22;11062;51.164;16.924;2023-03-01T15:04:56;35.20;20.60
21801;DHT22;11062;51.164;16.924;2023-03-01T15:07:28;35.00;20.60
21801;DHT22;11062;51.164;16.924;2023-03-01T15:09:55;35.00;21.00
21801;DHT22;11062;51.164;16.924;2023-03-01T15:12:40;34.90;21.00
21801;DHT22;11062;51.164;16.924;2023-03-01T15:15:21;34.80;21.00
21801;DHT22;11062;51.164;16.924;2023-03-01T15:17:53;34.40;21.10
21801;DHT22;11062;51.164;16.924;2023-03-01T15:20:24;34.20;21.40
21801;DHT22;11062;51.164;16.924;2023-03-01T15:22:55;34.00;21.40
21801;DHT22;11062;51.164;16.924;2023-03-01T15:25:25;33.80;21.60
21801;DHT22;11062;51.164;16.924;2023-03-01T15:27:53;33.60;21.70
21801;DHT22;11062;51.164;16.924;2023-03-01T15:30:33;33.50;21.90
21801;DHT22;11062;51.164;16.924;2023-03-01T15:35:55;33.10;22.10
21801;DHT22;11062;51.164;16.924;2023-03-01T15:38:49;32.80;22.30
21801;DHT22;11062;51.164;16.924;2023-03-01T15:41:37;32.70;22.30
21801;DHT22;11062;51.164;16.924;2023-03-01T15:44:30;32.50;22.30
21801;DHT22;11062;51.164;16.924;2023-03-01T15:46:56;32.30;22.40
21801;DHT22;11062;51.164;16.924;2023-03-01T15:51:56;31.80;22.60
21801;DHT22;11062;51.164;16.924;2023-03-01T15:54:25;31.60;22.90
21801;DHT22;11062;51.164;16.924;2023-03-01T15:56:51;31.50;22.90
21801;DHT22;11062;51.164;16.924;2023-03-01T15:59:17;31.30;23.10
21801;DHT22;11062;51.164;16.924;2023-03-01T16:01:44;31.10;23.20
21801;DHT22;11062;51.164;16.924;2023-03-01T16:04:13;31.00;23.30
21801;DHT22;11062;51.164;16.924;2023-03-01T16:06:46;30.80;23.40
21801;DHT22;11062;51.164;16.924;2023-03-01T16:09:35;30.60;23.50
21801;DHT22;11062;51.164;16.924;2023-03-01T16:12:37;30.50;23.60
21801;DHT22;11062;51.164;16.924;2023-03-01T16:15:27;30.60;24.00
21801;DHT22;11062;51.164;16.924;2023-03-01T16:18:13;30.10;24.00
21801;DHT22;11062;51.164;16.924;2023-03-01T16:20:49;29.50;23.80
21801;DHT22;11062;51.164;16.924;2023-03-01T16:23:18;29.50;24.30
21801;DHT22;11062;51.164;16.924;2023-03-01T16:30:40;29.00;24.40
21801;DHT22;11062;51.164;16.924;2023-03-01T16:33:31;28.60;24.70
21801;DHT22;11062;51.164;16.924;2023-03-01T16:41:14;28.00;24.80
21801;DHT22;11062;51.164;16.924;2023-03-01T16:44:01;27.90;25.00
21801;DHT22;11062;51.164;16.924;2023-03-01T16:51:31;27.60;25.10
21801;DHT22;11062;51.164;16.924;2023-03-01T16:54:00;27.50;26.20
21801;DHT22;11062;51.164;16.924;2023-03-01T16:56:25;27.40;26.10
21801;DHT22;11062;51.164;16.924;2023-03-01T16:58:51;27.30;26.10
21801;DHT22;11062;51.164;16.924;2023-03-01T17:01:19;27.20;26.10
21801;DHT22;11062;51.164;16.924;2023-03-01T17:03:52;27.20;26.50
21801;DHT22;11062;51.164;16.924;2023-03-01T17:06:26;26.00;25.80
21801;DHT22;11062;51.164;16.924;2023-03-01T17:08:52;26.10;26.10
21801;DHT22;11062;51.164;16.924;2023-03-01T17:11:21;26.90;27.00
21801;DHT22;11062;51.164;16.924;2023-03-01T17:13:47;26.70;26.80
21801;DHT22;11062;51.164;16.924;2023-03-01T17:16:15;26.60;27.90
21801;DHT22;11062;51.164;16.924;2023-03-01T17:18:42;26.40;28.10
21801;DHT22;11062;51.164;16.924;2023-03-01T17:21:08;26.40;27.20
21801;DHT22;11062;51.164;16.924;2023-03-01T17:23:36;26.30;26.90
21801;DHT22;11062;51.164;16.924;2023-03-01T17:26:03;26.30;26.90
21801;DHT22;11062;51.164;16.924;2023-03-01T17:28:31;26.20;27.10
21801;DHT22;11062;51.164;16.924;2023-03-01T17:31:01;26.10;27.80
21801;DHT22;11062;51.164;16.924;2023-03-01T17:33:27;26.00;27.00
21801;DHT22;11062;51.164;16.924;2023-03-01T17:35:56;25.90;27.10
21801;DHT22;11062;51.164;16.924;2023-03-01T17:40:51;25.70;26.50
21801;DHT22;11062;51.164;16.924;2023-03-01T17:43:17;25.70;27.00
21801;DHT22;11062;51.164;16.924;2023-03-01T17:45:44;25.60;27.10
21801;DHT22;11062;51.164;16.924;2023-03-01T17:48:14;25.50;27.10
21801;DHT22;11062;51.164;16.924;2023-03-01T17:50:40;25.50;27.10
21801;DHT22;11062;51.164;16.924;2023-03-01T17:53:06;25.50;27.20
21801;DHT22;11062;51.164;16.924;2023-03-01T17:55:38;25.40;27.30
21801;DHT22;11062;51.164;16.924;2023-03-01T17:58:05;25.30;27.30
21801;DHT22;11062;51.164;16.924;2023-03-01T18:00:32;26.50;28.00
21801;DHT22;11062;51.164;16.924;2023-03-01T18:02:58;25.10;27.40
21801;DHT22;11062;51.164;16.924;2023-03-01T18:05:25;25.00;27.60
21801;DHT22;11062;51.164;16.924;2023-03-01T18:07:51;25.00;27.60
21801;DHT22;11062;51.164;16.924;2023-03-01T18:10:18;25.00;27.80
21801;DHT22;11062;51.164;16.924;2023-03-01T18:12:47;24.80;27.70
21801;DHT22;11062;51.164;16.924;2023-03-01T18:15:13;24.80;28.20
21801;DHT22;11062;51.164;16.924;2023-03-01T18:17:39;24.70;28.30
21801;DHT22;11062;51.164;16.924;2023-03-01T18:20:05;24.60;28.10
21801;DHT22;11062;51.164;16.924;2023-03-01T18:22:32;24.60;27.90
21801;DHT22;11062;51.164;16.924;2023-03-01T18:24:58;24.50;28.00
21801;DHT22;11062;51.164;16.924;2023-03-01T18:27:24;24.40;28.10
21801;DHT22;11062;51.164;16.924;2023-03-01T18:29:50;24.40;28.10
21801;DHT22;11062;51.164;16.924;2023-03-01T18:32:16;24.30;28.00
21801;DHT22;11062;51.164;16.924;2023-03-01T18:34:42;24.30;28.00
21801;DHT22;11062;51.164;16.924;2023-03-01T18:37:08;24.30;28.10
21801;DHT22;11062;51.164;16.924;2023-03-01T18:39:34;24.20;28.10
21801;DHT22;11062;51.164;16.924;2023-03-01T18:42:00;24.20;28.10
21801;DHT22;11062;51.164;16.924;2023-03-01T18:44:26;24.10;28.10
21801;DHT22;11062;51.164;16.924;2023-03-01T18:46:51;24.10;28.60
21801;DHT22;11062;51.164;16.924;2023-03-01T18:49:18;24.10;28.10
21801;DHT22;11062;51.164;16.924;2023-03-01T18:51:44;24.00;28.20
21801;DHT22;11062;51.164;16.924;2023-03-01T18:54:11;24.00;28.30
21801;DHT22;11062;51.164;16.924;2023-03-01T18:56:37;23.90;28.30